Terminal Aerodrome Forecast
Issued by NWS

Home | Current Version | Previous Version | Text Only | Print | Product List | Glossary On
Versions: 1 2 3 4 5 6 7 8 9 10 11 12 13 14 15 16 17
000
FTUS43 KLSX 301100
TAFSUS
TAF
KSUS 301126Z 3012/3112 VRB03KT P6SM BKN100
     FM301600 18007KT P6SM VCSH SCT050 BKN080
      TEMPO 3019/3023 -SHRA
     FM302300 VRB04KT P6SM BKN050
     FM310500 34008KT P6SM SCT030 BKN050=

USA.gov is the U.S. government's official web portal to all federal, state and local government web resources and services.